createdAt,value
2024-05-09T00:00:01.312Z,90.6
2024-05-09T00:01:01.458Z,90.4
2024-05-09T00:02:03.182Z,90.1
2024-05-09T00:03:01.629Z,90.1
2024-05-09T00:04:01.828Z,90
2024-05-09T00:05:03.663Z,89.8
2024-05-09T00:06:03.756Z,90.1
2024-05-09T00:07:03.600Z,90.7
2024-05-09T00:08:02.198Z,90.9
2024-05-09T00:09:03.834Z,91.1
2024-05-09T00:10:04.147Z,91.1
2024-05-09T00:11:03.147Z,91
2024-05-09T00:12:01.763Z,91.1
2024-05-09T00:13:01.597Z,91.2
2024-05-09T00:14:01.737Z,91.3
2024-05-09T00:15:01.791Z,91.3
2024-05-09T00:16:02.192Z,91.3
2024-05-09T00:17:02.100Z,91.4
2024-05-09T00:18:04.284Z,91.4
2024-05-09T00:19:02.326Z,91.3
2024-05-09T00:20:01.464Z,91.3
2024-05-09T00:21:03.256Z,91.4
2024-05-09T00:22:01.539Z,91.4
2024-05-09T00:23:01.663Z,91.4
2024-05-09T00:24:01.702Z,91.5
2024-05-09T00:25:03.416Z,91.1
2024-05-09T00:26:01.987Z,91.1
2024-05-09T00:27:02.024Z,91.1
2024-05-09T00:28:02.074Z,91.3
2024-05-09T00:29:02.349Z,91.4
2024-05-09T00:30:01.298Z,91.5
2024-05-09T00:31:03.026Z,91.6
2024-05-09T00:32:03.352Z,91.5
2024-05-09T00:33:04.028Z,91.3
2024-05-09T00:34:01.993Z,91.3
2024-05-09T00:35:01.893Z,91.5
2024-05-09T00:36:01.960Z,91.6
2024-05-09T00:37:03.651Z,91.7
2024-05-09T00:38:02.373Z,91.5
2024-05-09T00:39:03.865Z,91.5
2024-05-09T00:40:01.345Z,91.6
2024-05-09T00:41:03.110Z,91.5
2024-05-09T00:42:01.564Z,91.2
2024-05-09T00:43:01.649Z,91.1
2024-05-09T00:44:01.810Z,91.1
2024-05-09T00:45:01.847Z,91.1
2024-05-09T00:46:03.536Z,91.1
2024-05-09T00:47:02.092Z,91.1
2024-05-09T00:48:02.435Z,91.2
2024-05-09T00:49:03.992Z,91.4
2024-05-09T00:50:01.496Z,91.5
2024-05-09T00:51:01.461Z,91.5
2024-05-09T00:52:03.190Z,91.5
2024-05-09T00:53:01.649Z,91.5
2024-05-09T00:54:03.369Z,91.5
2024-05-09T00:55:03.437Z,91.6
2024-05-09T00:56:01.965Z,91.6
2024-05-09T00:57:03.642Z,91.2
2024-05-09T00:58:02.118Z,91.3
2024-05-09T00:59:03.919Z,91.3
2024-05-09T01:00:01.306Z,91.2
2024-05-09T01:01:01.449Z,91.2
2024-05-09T01:02:01.678Z,91.1
2024-05-09T01:03:01.934Z,91.4
2024-05-09T01:04:01.808Z,91.4
2024-05-09T01:05:02.026Z,91.2
2024-05-09T01:06:03.639Z,91.1
2024-05-09T01:07:02.012Z,90.9
2024-05-09T01:08:03.796Z,90.8
2024-05-09T01:09:02.207Z,91.2
2024-05-09T01:10:01.378Z,91.4
2024-05-09T01:11:01.672Z,91.3
2024-05-09T01:12:01.687Z,91.5
2024-05-09T01:13:01.624Z,91.6
2024-05-09T01:14:03.373Z,91.7
2024-05-09T01:15:01.849Z,91.8
2024-05-09T01:16:01.912Z,92
2024-05-09T01:17:02.048Z,92
2024-05-09T01:18:02.443Z,91.8
2024-05-09T01:19:03.949Z,91.9
2024-05-09T01:20:01.379Z,92
2024-05-09T01:21:01.463Z,92.1
2024-05-09T01:22:03.172Z,92.2
2024-05-09T01:23:03.286Z,92
2024-05-09T01:24:03.349Z,91.9
2024-05-09T01:25:01.814Z,91.9
2024-05-09T01:26:03.594Z,92.1
2024-05-09T01:27:02.023Z,92.1
2024-05-09T01:28:02.160Z,92.1
2024-05-09T01:29:02.253Z,92.1
2024-05-09T01:30:01.302Z,92
2024-05-09T01:31:01.399Z,91.9
2024-05-09T01:32:03.254Z,91.7
2024-05-09T01:33:02.021Z,91.7
2024-05-09T01:34:01.791Z,91.9
2024-05-09T01:35:01.871Z,92
2024-05-09T01:36:03.573Z,91.9
2024-05-09T01:37:02.031Z,91.7
2024-05-09T01:38:02.394Z,91.5
2024-05-09T01:39:03.870Z,91.5
2024-05-09T01:40:03.661Z,91.5
2024-05-09T01:41:01.498Z,91.5
2024-05-09T01:42:01.569Z,91.6
2024-05-09T01:43:01.645Z,91.6
2024-05-09T01:44:03.407Z,91.5
2024-05-09T01:45:03.465Z,91.5
2024-05-09T01:46:03.576Z,91.5
2024-05-09T01:47:03.746Z,91.5
2024-05-09T01:48:02.944Z,91.5
2024-05-09T01:49:02.370Z,91.8
2024-05-09T01:50:01.566Z,91.9
2024-05-09T01:51:03.143Z,92
2024-05-09T01:52:01.552Z,92.1
2024-05-09T01:53:03.337Z,92.1
2024-05-09T01:54:03.389Z,92.2
2024-05-09T01:55:05.676Z,92.2
2024-05-09T01:56:03.618Z,92.2
2024-05-09T01:57:02.063Z,92.1
2024-05-09T01:58:02.163Z,92.1
2024-05-09T01:59:02.337Z,92.3
2024-05-09T02:00:01.352Z,92.4
2024-05-09T02:01:01.490Z,92.4
2024-05-09T02:02:01.796Z,92.5
2024-05-09T02:03:03.472Z,92.5
2024-05-09T02:04:03.632Z,92.5
2024-05-09T02:05:02.033Z,92.5
2024-05-09T02:06:02.107Z,92.4
2024-05-09T02:07:03.710Z,92.1
2024-05-09T02:08:02.238Z,92.1
2024-05-09T02:09:02.262Z,92.3
2024-05-09T02:10:01.379Z,92.2
2024-05-09T02:11:01.580Z,92.2
2024-05-09T02:12:01.658Z,92.3
2024-05-09T02:13:01.654Z,92.4
2024-05-09T02:14:01.804Z,92.3
2024-05-09T02:15:01.874Z,92.2
2024-05-09T02:16:03.579Z,92.1
2024-05-09T02:17:02.088Z,92
2024-05-09T02:18:04.165Z,91.9
2024-05-09T02:19:02.420Z,91.9
2024-05-09T02:20:01.472Z,92.1
2024-05-09T02:21:03.350Z,92.4
2024-05-09T02:22:03.207Z,92.7
2024-05-09T02:23:03.391Z,92.8
2024-05-09T02:24:03.355Z,92.9
2024-05-09T02:25:03.489Z,93
2024-05-09T02:26:03.642Z,93.1
2024-05-09T02:27:02.065Z,93.1
2024-05-09T02:28:02.206Z,93
2024-05-09T02:29:02.341Z,93
2024-05-09T02:30:01.350Z,93
2024-05-09T02:31:01.460Z,92.9
2024-05-09T02:32:01.631Z,92.9
2024-05-09T02:33:03.443Z,92.9
2024-05-09T02:34:02.074Z,92.9
2024-05-09T02:35:03.618Z,93
2024-05-09T02:36:01.968Z,93.1
2024-05-09T02:37:03.687Z,93.3
2024-05-09T02:38:03.901Z,93.4
2024-05-09T02:39:02.247Z,93.5
2024-05-09T02:40:03.480Z,93.5
2024-05-09T02:41:01.510Z,93.6
2024-05-09T02:42:01.547Z,93.6
2024-05-09T02:43:03.314Z,93.5
2024-05-09T02:44:01.784Z,93.5
2024-05-09T02:45:03.490Z,93.5
2024-05-09T02:46:03.580Z,93.5
2024-05-09T02:47:02.078Z,93.6
2024-05-09T02:48:04.142Z,93.5
2024-05-09T02:49:02.376Z,93.6
2024-05-09T02:50:03.633Z,93.6
2024-05-09T02:51:03.256Z,93.5
2024-05-09T02:52:03.193Z,93.5
2024-05-09T02:53:01.669Z,93.3
2024-05-09T02:54:01.746Z,93.2
2024-05-09T02:55:01.858Z,93.1
2024-05-09T02:56:03.597Z,93.1
2024-05-09T02:57:03.685Z,93.1
2024-05-09T02:58:03.791Z,93.1
2024-05-09T02:59:02.274Z,93.2
2024-05-09T03:00:01.311Z,93.1
2024-05-09T03:01:01.469Z,93.1
2024-05-09T03:02:03.277Z,93
2024-05-09T03:03:01.862Z,93
2024-05-09T03:04:01.880Z,92.9
2024-05-09T03:05:01.873Z,92.8
2024-05-09T03:06:03.543Z,92.7
2024-05-09T03:07:02.063Z,92.7
2024-05-09T03:08:02.239Z,92.8
2024-05-09T03:09:03.881Z,92.9
2024-05-09T03:10:01.297Z,92.9
2024-05-09T03:11:03.084Z,92.9
2024-05-09T03:12:01.626Z,92.9
2024-05-09T03:13:03.316Z,92.9
2024-05-09T03:14:01.773Z,92.9
2024-05-09T03:15:03.486Z,92.7
2024-05-09T03:16:01.907Z,92.7
2024-05-09T03:17:03.827Z,92.7
2024-05-09T03:18:02.492Z,92.7
2024-05-09T03:19:02.443Z,92.6
2024-05-09T03:20:01.384Z,92.7
2024-05-09T03:21:01.526Z,92.8
2024-05-09T03:22:01.560Z,93.1
2024-05-09T03:23:01.748Z,93.1
2024-05-09T03:24:01.764Z,93.2
2024-05-09T03:25:01.866Z,93.2
2024-05-09T03:26:01.988Z,93.1
2024-05-09T03:27:02.030Z,93.1
2024-05-09T03:28:02.160Z,93.2
2024-05-09T03:29:02.979Z,93.2
2024-05-09T03:30:01.374Z,93.3
2024-05-09T03:31:01.451Z,93.3
2024-05-09T03:32:03.349Z,93.3
2024-05-09T03:33:03.480Z,93.3
2024-05-09T03:34:01.968Z,93.3
2024-05-09T03:35:03.564Z,93.3
2024-05-09T03:36:04.591Z,93.2
2024-05-09T03:37:02.120Z,93.3
2024-05-09T03:38:03.993Z,93.3
2024-05-09T03:39:02.920Z,93.3
2024-05-09T03:40:03.088Z,93.4
2024-05-09T03:41:01.540Z,93.4
2024-05-09T03:42:01.630Z,93.3
2024-05-09T03:43:03.344Z,93.3
2024-05-09T03:44:01.881Z,93.1
2024-05-09T03:45:01.919Z,93.1
2024-05-09T03:46:03.658Z,93
2024-05-09T03:47:02.233Z,93
2024-05-09T03:49:03.077Z,92.8
2024-05-09T03:50:01.505Z,92.7
2024-05-09T03:51:01.579Z,92.6
2024-05-09T03:52:01.726Z,92.7
2024-05-09T03:53:03.537Z,92.9
2024-05-09T03:54:03.479Z,93
2024-05-09T03:55:03.615Z,93.1
2024-05-09T03:56:02.110Z,93.1
2024-05-09T03:57:02.200Z,93.1
2024-05-09T03:58:01.307Z,93
2024-05-09T03:59:01.400Z,93.1
2024-05-09T04:00:01.490Z,93
2024-05-09T04:01:01.740Z,92.9
2024-05-09T04:02:01.780Z,92.9
2024-05-09T04:03:02.201Z,92.8
2024-05-09T04:04:01.917Z,92.8
2024-05-09T04:05:03.754Z,92.8
2024-05-09T04:06:03.828Z,92.7
2024-05-09T04:07:02.229Z,92.8
2024-05-09T04:08:01.575Z,92.8
2024-05-09T04:09:03.064Z,92.8
2024-05-09T04:10:01.509Z,92.8
2024-05-09T04:11:01.778Z,92.7
2024-05-09T04:12:01.922Z,92.7
2024-05-09T04:13:02.021Z,92.7
2024-05-09T04:14:02.031Z,92.6
2024-05-09T04:15:03.637Z,92.7
2024-05-09T04:16:03.748Z,92.7
2024-05-09T04:17:03.878Z,92.7
2024-05-09T04:18:02.332Z,92.8
2024-05-09T04:19:03.120Z,92.8
2024-05-09T04:20:03.255Z,92.8
2024-05-09T04:21:01.783Z,92.8
2024-05-09T04:22:03.355Z,92.8
2024-05-09T04:23:03.561Z,92.8
2024-05-09T04:24:01.923Z,92.9
2024-05-09T04:25:02.021Z,93
2024-05-09T04:26:02.196Z,93
2024-05-09T04:27:03.872Z,93
2024-05-09T04:28:02.973Z,93
2024-05-09T04:29:03.135Z,92.9
2024-05-09T04:30:01.506Z,92.9
2024-05-09T04:31:01.591Z,92.8
2024-05-09T04:32:01.743Z,92.7
2024-05-09T04:33:02.015Z,92.6
2024-05-09T04:34:04.012Z,92.6
2024-05-09T04:35:03.818Z,92.7
2024-05-09T04:36:02.114Z,92.8
2024-05-09T04:37:02.244Z,92.9
2024-05-09T04:38:02.991Z,93
2024-05-09T04:39:01.415Z,93.1
2024-05-09T04:40:01.553Z,93.1
2024-05-09T04:41:03.348Z,93
2024-05-09T04:42:03.350Z,92.9
2024-05-09T04:43:01.842Z,92.9
2024-05-09T04:44:02.069Z,92.9
2024-05-09T04:45:02.018Z,92.9
2024-05-09T04:46:02.155Z,93
2024-05-09T04:47:03.920Z,93
2024-05-09T04:48:03.493Z,93
2024-05-09T04:49:03.178Z,93
2024-05-09T04:50:03.599Z,93.1
2024-05-09T04:51:03.508Z,93
2024-05-09T04:52:01.726Z,93
2024-05-09T04:53:01.885Z,92.9
2024-05-09T04:54:01.924Z,92.8
2024-05-09T04:55:02.068Z,92.9
2024-05-09T04:56:03.798Z,93
2024-05-09T04:57:03.895Z,93.1
2024-05-09T04:58:01.356Z,93
2024-05-09T04:59:01.532Z,92.9
2024-05-09T05:00:01.663Z,92.8
2024-05-09T05:01:01.707Z,92.8
2024-05-09T05:02:03.569Z,92.7
2024-05-09T05:03:02.071Z,92.6
2024-05-09T05:04:02.160Z,92.6
2024-05-09T05:05:02.273Z,92.6
2024-05-09T05:06:02.395Z,92.6
2024-05-09T05:07:03.166Z,92.6
2024-05-09T05:08:01.514Z,92.5
2024-05-09T05:09:01.499Z,92.4
2024-05-09T05:10:04.501Z,92.3
2024-05-09T05:11:01.830Z,92.1
2024-05-09T05:12:01.944Z,91.8
2024-05-09T05:13:01.904Z,91.7
2024-05-09T05:14:03.721Z,91.6
2024-05-09T05:15:02.089Z,91.6
2024-05-09T05:16:02.214Z,91.5
2024-05-09T05:17:03.034Z,91.3
2024-05-09T05:18:01.553Z,91.3
2024-05-09T05:19:03.311Z,91.4
2024-05-09T05:20:03.597Z,91.5
2024-05-09T05:21:03.396Z,91.6
2024-05-09T05:22:01.856Z,91.4
2024-05-09T05:23:02.033Z,91.3
2024-05-09T05:24:03.648Z,91.3
2024-05-09T05:25:02.142Z,91.1
2024-05-09T05:26:02.303Z,91.1
2024-05-09T05:27:01.314Z,91.2
2024-05-09T05:28:01.427Z,91.1
2024-05-09T05:29:01.584Z,90.8
2024-05-09T05:30:01.685Z,90.2
2024-05-09T05:31:01.735Z,89.9
2024-05-09T05:32:01.904Z,89.6
2024-05-09T05:33:03.621Z,89.3
2024-05-09T05:34:03.709Z,89.2
2024-05-09T05:35:03.825Z,89.5
2024-05-09T05:36:02.246Z,89.6
2024-05-09T05:37:03.134Z,89.3
2024-05-09T05:38:01.622Z,89.3
2024-05-09T05:39:03.208Z,89
2024-05-09T05:40:01.663Z,88.8
2024-05-09T05:41:03.431Z,88.7
2024-05-09T05:42:01.861Z,88.5
2024-05-09T05:43:03.584Z,88.7
2024-05-09T05:44:03.781Z,88.7
2024-05-09T05:45:02.189Z,88.7
2024-05-09T05:46:01.251Z,88.6
2024-05-09T05:47:01.493Z,88.4
2024-05-09T05:48:01.774Z,88.3
2024-05-09T05:49:01.680Z,88.3
2024-05-09T05:50:01.718Z,88.3
2024-05-09T05:51:04.700Z,88.4
2024-05-09T05:52:03.602Z,88.1
2024-05-09T05:53:03.777Z,87.8
2024-05-09T05:54:03.732Z,87.6
2024-05-09T05:55:03.872Z,87.2
2024-05-09T05:56:01.532Z,87
2024-05-09T05:57:03.082Z,87.2
2024-05-09T05:58:01.558Z,87.5
2024-05-09T05:59:03.286Z,87.9
2024-05-09T06:00:01.790Z,88
2024-05-09T06:01:01.846Z,87.7
2024-05-09T06:02:01.958Z,87.4
2024-05-09T06:03:03.787Z,87.3
2024-05-09T06:04:03.846Z,87.1
2024-05-09T06:05:02.338Z,87
2024-05-09T06:06:01.368Z,87
2024-05-09T06:07:01.452Z,87.1
2024-05-09T06:08:03.283Z,87.2
2024-05-09T06:09:03.284Z,87.5
2024-05-09T06:10:05.238Z,87.7
2024-05-09T06:11:02.000Z,88.2
2024-05-09T06:12:03.735Z,88.1
2024-05-09T06:13:03.646Z,88
2024-05-09T06:14:02.232Z,87.6
2024-05-09T06:15:02.291Z,87.4
2024-05-09T06:16:03.052Z,86.9
2024-05-09T06:17:03.073Z,86.7
2024-05-09T06:18:03.346Z,86.4
2024-05-09T06:19:03.355Z,86.2
2024-05-09T06:20:01.899Z,86.2
2024-05-09T06:21:02.006Z,86.1
2024-05-09T06:22:03.627Z,86.1
2024-05-09T06:23:02.346Z,85.2
2024-05-09T06:24:06.160Z,84.8
2024-05-09T06:25:01.252Z,84.5
2024-05-09T06:26:03.023Z,84.5
2024-05-09T06:27:01.474Z,84.3
2024-05-09T06:28:01.699Z,84.3
2024-05-09T06:29:01.730Z,84.4
2024-05-09T06:30:03.869Z,84.7
2024-05-09T06:31:01.895Z,84.3
2024-05-09T06:32:03.757Z,83.8
2024-05-09T06:33:02.243Z,83.9
2024-05-09T06:34:04.041Z,83.8
2024-05-09T06:35:01.309Z,83.8
2024-05-09T06:36:03.059Z,83.5
2024-05-09T06:37:01.504Z,83.3
2024-05-09T06:38:02.013Z,83.2
2024-05-09T06:39:01.665Z,82.9
2024-05-09T06:40:01.764Z,83.1
2024-05-09T06:41:01.983Z,83.5
2024-05-09T06:42:02.019Z,83.3
2024-05-09T06:43:02.096Z,83.3
2024-05-09T06:44:03.876Z,83.2
2024-05-09T06:45:01.299Z,82.6
2024-05-09T06:46:01.406Z,82.7
2024-05-09T06:47:01.579Z,82.9
2024-05-09T06:48:01.738Z,83.1
2024-05-09T06:49:01.941Z,83.2
2024-05-09T06:50:01.794Z,83.6
2024-05-09T06:51:03.581Z,83.5
2024-05-09T06:52:01.970Z,83.5
2024-05-09T06:53:02.373Z,83.9
2024-05-09T06:54:02.168Z,82.7
2024-05-09T06:55:02.934Z,82.3
2024-05-09T06:56:01.460Z,82.8
2024-05-09T06:57:01.500Z,83
2024-05-09T06:58:01.635Z,82.5
2024-05-09T06:59:03.354Z,82.3
2024-05-09T07:00:01.808Z,82.4
2024-05-09T07:01:01.980Z,83.1
2024-05-09T07:02:03.694Z,82.9
2024-05-09T07:03:05.470Z,82.9
2024-05-09T07:04:04.235Z,82
2024-05-09T07:05:03.030Z,81.7
2024-05-09T07:06:01.518Z,81.8
2024-05-09T07:07:01.503Z,82.2
2024-05-09T07:08:03.397Z,83.2
2024-05-09T07:09:01.736Z,82.7
2024-05-09T07:10:01.845Z,81.8
2024-05-09T07:11:03.630Z,81.5
2024-05-09T07:12:02.152Z,80.7
2024-05-09T07:13:02.121Z,80.6
2024-05-09T07:14:02.326Z,80.8
2024-05-09T07:15:01.352Z,80.8
2024-05-09T07:16:03.117Z,80.3
2024-05-09T07:17:01.619Z,80.4
2024-05-09T07:18:03.582Z,80.6
2024-05-09T07:19:01.868Z,81.7
2024-05-09T07:20:01.899Z,82.6
2024-05-09T07:21:03.669Z,82.3
2024-05-09T07:22:02.070Z,81.4
2024-05-09T07:23:02.267Z,81.3
2024-05-09T07:24:03.898Z,81.1
2024-05-09T07:25:01.370Z,79.7
2024-05-09T07:26:01.494Z,79.6
2024-05-09T07:27:01.556Z,80.2
2024-05-09T07:28:01.621Z,80.5
2024-05-09T07:29:01.808Z,80.1
2024-05-09T07:30:02.211Z,79.5
2024-05-09T07:31:03.612Z,79.8
2024-05-09T07:32:02.243Z,80.5
2024-05-09T07:33:03.035Z,82
2024-05-09T07:34:01.409Z,82.3
2024-05-09T07:35:03.079Z,80.1
2024-05-09T07:36:03.163Z,81
2024-05-09T07:37:01.576Z,80.5
2024-05-09T07:38:01.720Z,80.2
2024-05-09T07:39:01.795Z,80.7
2024-05-09T07:40:01.898Z,81.7
2024-05-09T07:41:02.116Z,81.2
2024-05-09T07:42:02.121Z,82.2
2024-05-09T07:43:02.216Z,80.2
2024-05-09T07:44:01.401Z,79.3
2024-05-09T07:45:20.963Z,79.6
2024-05-09T07:46:51.896Z,77.4
2024-05-09T07:50:53.277Z,79.5
2024-05-09T07:51:51.318Z,78.9
2024-05-09T07:53:26.754Z,78.8
2024-05-09T07:53:36.116Z,79.1
2024-05-09T07:54:03.647Z,81.7
2024-05-09T07:55:01.698Z,82.2
2024-05-09T07:56:03.447Z,81.5
2024-05-09T07:57:01.864Z,80.4
2024-05-09T07:58:01.928Z,78.8
2024-05-09T07:59:03.491Z,80.3
2024-05-09T08:00:04.503Z,82
2024-05-09T08:01:02.270Z,81.2
2024-05-09T08:02:02.489Z,80.2
2024-05-09T08:03:02.303Z,79.7
2024-05-09T08:04:03.175Z,79.6
2024-05-09T08:05:01.745Z,76.3
2024-05-09T08:06:03.188Z,74.8
2024-05-09T08:07:03.335Z,73.9
2024-05-09T08:08:03.387Z,77.4
2024-05-09T08:09:08.042Z,77
2024-05-09T08:10:05.233Z,74.8
2024-05-09T08:11:03.771Z,74.9
2024-05-09T08:12:02.150Z,77.5
2024-05-09T08:14:03.024Z,78.3
2024-05-09T08:15:01.487Z,76.4
2024-05-09T08:16:03.385Z,72.5
2024-05-09T08:17:01.719Z,75.3
2024-05-09T08:18:03.585Z,77.7
2024-05-09T08:19:01.988Z,74.6
2024-05-09T08:20:05.076Z,72.8
2024-05-09T08:21:03.703Z,73.7
2024-05-09T08:22:03.811Z,73.1
2024-05-09T08:23:01.264Z,75.6
2024-05-09T08:24:03.002Z,78.2
2024-05-09T08:25:01.584Z,77.9
2024-05-09T08:26:01.604Z,77.1
2024-05-09T08:27:01.677Z,76.9
2024-05-09T08:28:01.858Z,78.3
2024-05-09T08:29:01.890Z,71
2024-05-09T08:30:03.994Z,75.9
2024-05-09T08:31:06.066Z,71
2024-05-09T08:32:02.210Z,69.4
2024-05-09T08:33:01.364Z,70.1
2024-05-09T08:34:03.199Z,71.1
2024-05-09T08:35:03.145Z,70.3
2024-05-09T08:36:03.292Z,69.6
2024-05-09T08:37:12.845Z,67.7
2024-05-09T08:38:03.682Z,67.9
2024-05-09T08:39:01.950Z,67.8
2024-05-09T08:40:02.061Z,70.7
2024-05-09T08:41:02.117Z,70.9
2024-05-09T08:42:03.868Z,69.7
2024-05-09T08:43:01.428Z,69.8
2024-05-09T08:44:01.477Z,69.5
2024-05-09T08:45:03.214Z,71.6
2024-05-09T08:46:03.335Z,70
2024-05-09T08:47:03.439Z,69.9
2024-05-09T08:48:03.539Z,70.9
2024-05-09T08:49:02.240Z,65.8
2024-05-09T08:50:02.106Z,66.7
2024-05-09T08:51:02.179Z,67.6
2024-05-09T08:52:04.041Z,68.9
2024-05-09T08:53:03.031Z,69.8
2024-05-09T08:54:01.446Z,68.8
2024-05-09T08:55:03.315Z,67.7
2024-05-09T08:56:01.659Z,68.6
2024-05-09T08:57:03.369Z,68
2024-05-09T08:58:03.683Z,66.7
2024-05-09T08:59:01.926Z,66.3
2024-05-09T09:00:06.252Z,67
2024-05-09T09:01:02.203Z,64.7
2024-05-09T09:02:02.444Z,62.7
2024-05-09T09:03:03.030Z,64
2024-05-09T09:04:01.726Z,63.7
2024-05-09T09:05:03.295Z,62.1
2024-05-09T09:06:01.694Z,61.7
2024-05-09T09:07:03.714Z,63
2024-05-09T09:08:03.475Z,63.5
2024-05-09T09:09:03.571Z,64.8
2024-05-09T09:10:02.063Z,62.8
2024-05-09T09:11:03.785Z,64.1
2024-05-09T09:12:03.951Z,64.5
2024-05-09T09:13:03.161Z,64.7
2024-05-09T09:14:01.473Z,61.5
2024-05-09T09:15:01.563Z,61.4
2024-05-09T09:16:01.791Z,60.8
2024-05-09T09:17:03.384Z,61.2
2024-05-09T09:18:03.717Z,61.4
2024-05-09T09:19:03.788Z,61.1
2024-05-09T09:20:02.243Z,61.5
2024-05-09T09:21:03.799Z,60.6
2024-05-09T09:23:02.999Z,59.4
2024-05-09T09:24:01.455Z,61.2
2024-05-09T09:25:01.660Z,59.4
2024-05-09T09:26:01.817Z,63.9
2024-05-09T09:27:03.396Z,59.9
2024-05-09T09:28:01.899Z,59.2
2024-05-09T09:29:01.999Z,58.2
2024-05-09T09:30:02.044Z,59
2024-05-09T09:31:04.103Z,62.3
2024-05-09T09:32:02.910Z,62.4
2024-05-09T09:33:01.492Z,60.9
2024-05-09T09:34:01.771Z,58.4
2024-05-09T09:35:01.726Z,57.5
2024-05-09T09:36:03.387Z,61.7
2024-05-09T09:37:03.609Z,59.4
2024-05-09T09:38:02.038Z,59.2
2024-05-09T09:39:01.993Z,60.7
2024-05-09T09:40:02.187Z,63
2024-05-09T09:41:04.012Z,61
2024-05-09T09:42:02.904Z,62.7
2024-05-09T09:43:03.149Z,60.2
2024-05-09T09:44:03.145Z,60.6
2024-05-09T09:45:05.502Z,60.9
2024-05-09T09:46:03.446Z,58.4
2024-05-09T09:47:01.840Z,60.7
2024-05-09T09:48:02.022Z,59.6
2024-05-09T09:49:03.704Z,58.4
2024-05-09T09:50:02.292Z,57.9
2024-05-09T09:51:02.250Z,57.8
2024-05-09T09:52:01.384Z,59.2
2024-05-09T09:53:01.472Z,59.6
2024-05-09T09:54:03.132Z,60.4
2024-05-09T09:55:03.411Z,59.8
2024-05-09T09:56:01.727Z,60.2
2024-05-09T09:57:01.807Z,58.9
2024-05-09T09:58:01.989Z,58
2024-05-09T09:59:02.045Z,62.6
2024-05-09T10:00:03.114Z,62.1
2024-05-09T10:01:02.430Z,59.5
2024-05-09T10:02:01.603Z,61.1
2024-05-09T10:03:03.242Z,61.8
2024-05-09T10:04:01.689Z,60.8
2024-05-09T10:05:03.491Z,59.3
2024-05-09T10:06:01.783Z,61.3
2024-05-09T10:07:01.905Z,58.8
2024-05-09T10:08:01.944Z,58.2
2024-05-09T10:09:03.708Z,58
2024-05-09T10:10:02.593Z,59.3
2024-05-09T10:11:04.200Z,60.6
2024-05-09T10:12:03.072Z,60.2
2024-05-09T10:13:03.204Z,57.2
2024-05-09T10:14:01.530Z,59.3
2024-05-09T10:15:03.291Z,58.8
2024-05-09T10:16:01.814Z,60.1
2024-05-09T10:17:03.485Z,61.5
2024-05-09T10:18:02.123Z,58.2
2024-05-09T10:19:02.231Z,60
2024-05-09T10:20:02.533Z,59.2
2024-05-09T10:21:02.272Z,58.7
2024-05-09T10:22:03.052Z,57.7
2024-05-09T10:23:03.103Z,59.5
2024-05-09T10:24:01.549Z,58.7
2024-05-09T10:25:04.698Z,60.5
2024-05-09T10:26:03.768Z,61
2024-05-09T10:27:03.477Z,60.6
2024-05-09T10:28:01.999Z,60.5
2024-05-09T10:29:03.736Z,58.1
2024-05-09T10:30:05.120Z,60.7
2024-05-09T10:31:02.353Z,60.9
2024-05-09T10:32:01.360Z,61.7
2024-05-09T10:33:03.269Z,60.7
2024-05-09T10:34:01.751Z,57.6
2024-05-09T10:35:01.929Z,57.6
2024-05-09T10:36:01.748Z,57.6
2024-05-09T10:37:04.196Z,59.7
2024-05-09T10:38:03.634Z,59.9
2024-05-09T10:39:02.096Z,57.5
2024-05-09T10:40:02.566Z,56.7
2024-05-09T10:41:01.310Z,61
2024-05-09T10:42:01.383Z,61
2024-05-09T10:43:05.758Z,60.2
2024-05-09T10:44:03.253Z,58.4
2024-05-09T10:45:03.323Z,60.7
2024-05-09T10:46:01.784Z,57.9
2024-05-09T10:47:03.566Z,58.1
2024-05-09T10:48:02.248Z,61.1
2024-05-09T10:49:07.163Z,58.6
2024-05-09T10:50:07.799Z,57.4
2024-05-09T10:51:02.935Z,59.9
2024-05-09T10:52:03.066Z,58.1
2024-05-09T10:53:03.093Z,58.2
2024-05-09T10:54:03.243Z,60.4
2024-05-09T10:55:05.627Z,58.2
2024-05-09T10:56:03.423Z,58.5
2024-05-09T10:57:03.516Z,59.8
2024-05-09T10:58:02.011Z,58.2
2024-05-09T10:59:03.729Z,58.5
2024-05-09T11:00:02.183Z,58.8
2024-05-09T11:01:04.337Z,58.4
2024-05-09T11:02:01.484Z,60.4
2024-05-09T11:03:03.215Z,60.4
2024-05-09T11:04:03.536Z,57.5
2024-05-09T11:05:01.824Z,59.3
2024-05-09T11:06:03.411Z,60.3
2024-05-09T11:07:05.127Z,59
2024-05-09T11:08:03.600Z,61.1
2024-05-09T11:09:03.748Z,61
2024-05-09T11:10:02.263Z,61.6
2024-05-09T11:11:01.288Z,63.7
2024-05-09T11:12:01.440Z,62.3
2024-05-09T11:13:01.550Z,61
2024-05-09T11:14:01.609Z,59.8
2024-05-09T11:15:03.378Z,58.4
2024-05-09T11:16:03.539Z,57.3
2024-05-09T11:17:02.026Z,59.5
2024-05-09T11:18:02.123Z,60.9
2024-05-09T11:19:02.369Z,59.9
2024-05-09T11:20:03.248Z,58
2024-05-09T11:21:02.993Z,58.3
2024-05-09T11:22:03.098Z,57.3
2024-05-09T11:23:01.542Z,59.6
2024-05-09T11:24:01.640Z,59
2024-05-09T11:25:03.425Z,60.2
2024-05-09T11:26:03.522Z,59.8
2024-05-09T11:27:03.610Z,61.4
2024-05-09T11:28:02.168Z,59.6
2024-05-09T11:29:03.774Z,57.4
2024-05-09T11:30:04.490Z,59.7
2024-05-09T11:31:03.089Z,59.3
2024-05-09T11:32:03.082Z,59.3
2024-05-09T11:33:01.685Z,58.8
2024-05-09T11:34:01.653Z,61.2
2024-05-09T11:35:03.399Z,63.4
2024-05-09T11:36:01.810Z,62.1
2024-05-09T11:37:03.669Z,60.9
2024-05-09T11:38:02.090Z,61.1
2024-05-09T11:39:02.146Z,57.4
2024-05-09T11:40:03.337Z,56.7
2024-05-09T11:41:01.372Z,58.8
2024-05-09T11:42:01.453Z,59.6
2024-05-09T11:43:01.784Z,58.2
2024-05-09T11:44:03.286Z,58.2
2024-05-09T11:45:01.724Z,58.2
2024-05-09T11:46:04.181Z,58
2024-05-09T11:47:01.956Z,56.7
2024-05-09T11:48:02.361Z,59
2024-05-09T11:49:02.381Z,56.9
2024-05-09T11:50:04.360Z,57.6
2024-05-09T11:51:01.411Z,57.5
2024-05-09T11:52:01.524Z,59.9
2024-05-09T11:53:01.573Z,56.2
2024-05-09T11:54:03.340Z,60.2
2024-05-09T11:55:03.479Z,59
2024-05-09T11:56:01.869Z,59.9
2024-05-09T11:57:01.967Z,58.9
2024-05-09T11:58:03.734Z,58.4
2024-05-09T11:59:02.241Z,59.4
2024-05-09T12:00:04.165Z,57
2024-05-09T12:01:01.500Z,57
2024-05-09T12:02:01.565Z,57.2
2024-05-09T12:03:01.628Z,57.9
2024-05-09T12:04:01.990Z,57.1
2024-05-09T12:05:01.911Z,56.2
2024-05-09T12:06:02.116Z,57.8
2024-05-09T12:07:03.850Z,59.2
2024-05-09T12:08:03.708Z,57.8
2024-05-09T12:09:03.794Z,56.6
2024-05-09T12:10:04.684Z,59.4
2024-05-09T12:11:01.697Z,60.3
2024-05-09T12:12:03.179Z,61.1
2024-05-09T12:13:05.377Z,61.9
2024-05-09T12:14:03.298Z,59.8
2024-05-09T12:15:03.426Z,59.3
2024-05-09T12:16:02.008Z,58
2024-05-09T12:17:01.989Z,59.7
2024-05-09T12:18:03.907Z,56.6
2024-05-09T12:19:02.369Z,57.4
2024-05-09T12:20:04.311Z,57.4
2024-05-09T12:21:01.395Z,58.9
2024-05-09T12:22:03.142Z,58.5
2024-05-09T12:23:01.589Z,59.5
2024-05-09T12:24:03.325Z,59.4
2024-05-09T12:25:01.811Z,59.1
2024-05-09T12:26:03.518Z,58
2024-05-09T12:27:02.057Z,58.6
2024-05-09T12:28:03.734Z,58.8
2024-05-09T12:29:03.965Z,59
2024-05-09T12:30:04.612Z,57.5
2024-05-09T12:31:01.398Z,58.9
2024-05-09T12:32:03.106Z,59.9
2024-05-09T12:33:03.304Z,56.7
2024-05-09T12:34:01.694Z,59.5
2024-05-09T12:35:01.765Z,57.3
2024-05-09T12:36:03.514Z,59.7
2024-05-09T12:37:02.004Z,61.2
2024-05-09T12:38:03.839Z,57.4
2024-05-09T12:39:02.192Z,57.9
2024-05-09T12:40:01.322Z,57.1
2024-05-09T12:41:01.454Z,56.9
2024-05-09T12:42:03.182Z,57.2
2024-05-09T12:43:03.283Z,56.5
2024-05-09T12:44:01.717Z,58.1
2024-05-09T12:45:03.400Z,57.1
2024-05-09T12:46:02.088Z,58.5
2024-05-09T12:47:03.684Z,61.1
2024-05-09T12:48:03.942Z,59.9
2024-05-09T12:49:02.440Z,57.8
2024-05-09T12:50:04.958Z,59.5
2024-05-09T12:51:03.095Z,58.1
2024-05-09T12:52:03.369Z,57.5
2024-05-09T12:53:02.360Z,57.6
2024-05-09T12:54:01.790Z,57.7
2024-05-09T12:55:03.835Z,56.8
2024-05-09T12:56:04.880Z,57.1
2024-05-09T12:57:02.064Z,57.4
2024-05-09T12:58:02.266Z,58.2
2024-05-09T12:59:02.915Z,59.3
2024-05-09T13:00:01.391Z,55.7
2024-05-09T13:01:03.236Z,57.8
2024-05-09T13:02:01.858Z,54.8
2024-05-09T13:03:02.011Z,56.2
2024-05-09T13:04:02.133Z,56.5
2024-05-09T13:05:02.183Z,59.7
2024-05-09T13:06:01.981Z,56.7
2024-05-09T13:07:06.384Z,57.1
2024-05-09T13:08:02.161Z,56.6
2024-05-09T13:09:02.926Z,57.3
2024-05-09T13:10:01.489Z,58.4
2024-05-09T13:11:03.130Z,57.4
2024-05-09T13:12:03.272Z,58
2024-05-09T13:13:03.478Z,57.3
2024-05-09T13:14:01.832Z,54.8
2024-05-09T13:15:03.565Z,57.3
2024-05-09T13:16:03.728Z,55.7
2024-05-09T13:17:02.156Z,56.5
2024-05-09T13:18:03.589Z,56.7
2024-05-09T13:19:02.985Z,55.5
2024-05-09T13:20:01.440Z,55.6
2024-05-09T13:21:03.200Z,56.3
2024-05-09T13:22:03.444Z,56.9
2024-05-09T13:23:03.420Z,55.4
2024-05-09T13:24:01.843Z,55.7
2024-05-09T13:25:03.691Z,55.1
2024-05-09T13:26:02.038Z,57.3
2024-05-09T13:27:02.164Z,57.9
2024-05-09T13:28:02.457Z,55.9
2024-05-09T13:29:01.345Z,56.3